sensor_id;sensor_type;location;lat;lon;timestamp;temperature;humidity
51327;DHT22;37412;52.836;6.362;2023-03-23T00:00:49;11.30;99.90
51327;DHT22;37412;52.836;6.362;2023-03-23T00:03:36;11.30;99.90
51327;DHT22;37412;52.836;6.362;2023-03-23T00:06:22;11.30;99.90
51327;DHT22;37412;52.836;6.362;2023-03-23T00:09:10;11.30;99.90
51327;DHT22;37412;52.836;6.362;2023-03-23T00:11:56;11.30;99.90
51327;DHT22;37412;52.836;6.362;2023-03-23T00:14:42;11.30;99.90
51327;DHT22;37412;52.836;6.362;2023-03-23T00:17:29;11.20;99.90
51327;DHT22;37412;52.836;6.362;2023-03-23T00:20:15;11.20;99.90
51327;DHT22;37412;52.836;6.362;2023-03-23T00:23:02;11.30;99.90
51327;DHT22;37412;52.836;6.362;2023-03-23T00:25:54;11.30;99.90
51327;DHT22;37412;52.836;6.362;2023-03-23T00:28:43;11.30;99.90
51327;DHT22;37412;52.836;6.362;2023-03-23T00:31:32;11.30;99.90
51327;DHT22;37412;52.836;6.362;2023-03-23T00:34:21;11.40;99.90
51327;DHT22;37412;52.836;6.362;2023-03-23T00:37:10;11.30;99.90
51327;DHT22;37412;52.836;6.362;2023-03-23T00:39:56;11.30;99.90
51327;DHT22;37412;52.836;6.362;2023-03-23T00:42:43;11.30;99.90
51327;DHT22;37412;52.836;6.362;2023-03-23T00:45:29;11.30;99.90
51327;DHT22;37412;52.836;6.362;2023-03-23T00:48:15;11.30;99.90
51327;DHT22;37412;52.836;6.362;2023-03-23T00:51:02;11.30;99.90
51327;DHT22;37412;52.836;6.362;2023-03-23T00:53:51;11.30;99.90
51327;DHT22;37412;52.836;6.362;2023-03-23T00:56:37;11.30;99.90
51327;DHT22;37412;52.836;6.362;2023-03-23T00:59:25;11.30;99.90
51327;DHT22;37412;52.836;6.362;2023-03-23T01:02:11;11.30;99.90
51327;DHT22;37412;52.836;6.362;2023-03-23T01:04:56;11.40;99.90
51327;DHT22;37412;52.836;6.362;2023-03-23T01:07:47;11.30;99.90
51327;DHT22;37412;52.836;6.362;2023-03-23T01:10:33;11.40;99.90
51327;DHT22;37412;52.836;6.362;2023-03-23T01:13:19;11.40;99.90
51327;DHT22;37412;52.836;6.362;2023-03-23T01:16:06;11.40;99.90
51327;DHT22;37412;52.836;6.362;2023-03-23T01:18:52;11.40;99.90
51327;DHT22;37412;52.836;6.362;2023-03-23T01:21:38;11.40;99.90
51327;DHT22;37412;52.836;6.362;2023-03-23T01:24:24;11.40;99.90
51327;DHT22;37412;52.836;6.362;2023-03-23T01:27:10;11.40;99.90
51327;DHT22;37412;52.836;6.362;2023-03-23T01:29:56;11.40;99.90
51327;DHT22;37412;52.836;6.362;2023-03-23T01:32:42;11.40;99.90
51327;DHT22;37412;52.836;6.362;2023-03-23T01:35:28;11.40;99.90
51327;DHT22;37412;52.836;6.362;2023-03-23T01:38:14;11.40;99.90
51327;DHT22;37412;52.836;6.362;2023-03-23T01:41:00;11.30;99.90
51327;DHT22;37412;52.836;6.362;2023-03-23T01:43:58;11.30;99.90
51327;DHT22;37412;52.836;6.362;2023-03-23T01:46:44;11.30;99.90
51327;DHT22;37412;52.836;6.362;2023-03-23T01:49:36;11.30;99.90
51327;DHT22;37412;52.836;6.362;2023-03-23T01:52:26;11.40;99.90
51327;DHT22;37412;52.836;6.362;2023-03-23T01:55:18;11.40;99.90
51327;DHT22;37412;52.836;6.362;2023-03-23T01:58:06;11.40;99.90
51327;DHT22;37412;52.836;6.362;2023-03-23T02:00:55;11.40;99.90
51327;DHT22;37412;52.836;6.362;2023-03-23T02:03:44;11.40;99.90
51327;DHT22;37412;52.836;6.362;2023-03-23T02:06:31;11.40;99.90
51327;DHT22;37412;52.836;6.362;2023-03-23T02:09:18;11.40;99.90
51327;DHT22;37412;52.836;6.362;2023-03-23T02:12:05;11.40;99.90
51327;DHT22;37412;52.836;6.362;2023-03-23T02:14:52;11.40;99.90
51327;DHT22;37412;52.836;6.362;2023-03-23T02:26:54;11.30;99.90
51327;DHT22;37412;52.836;6.362;2023-03-23T02:30:08;11.30;99.90
51327;DHT22;37412;52.836;6.362;2023-03-23T02:33:28;11.30;99.90
51327;DHT22;37412;52.836;6.362;2023-03-23T02:36:52;11.30;99.90
51327;DHT22;37412;52.836;6.362;2023-03-23T02:39:43;11.30;99.90
51327;DHT22;37412;52.836;6.362;2023-03-23T02:42:32;11.30;99.90
51327;DHT22;37412;52.836;6.362;2023-03-23T02:45:20;11.20;99.90
51327;DHT22;37412;52.836;6.362;2023-03-23T02:48:08;11.30;99.90
51327;DHT22;37412;52.836;6.362;2023-03-23T02:50:55;11.30;99.90
51327;DHT22;37412;52.836;6.362;2023-03-23T02:53:43;11.30;99.90
51327;DHT22;37412;52.836;6.362;2023-03-23T02:56:30;11.30;99.90
51327;DHT22;37412;52.836;6.362;2023-03-23T02:59:19;11.30;99.90
51327;DHT22;37412;52.836;6.362;2023-03-23T03:02:24;11.30;99.90
51327;DHT22;37412;52.836;6.362;2023-03-23T03:08:39;11.20;99.90
51327;DHT22;37412;52.836;6.362;2023-03-23T03:11:31;11.20;99.90
51327;DHT22;37412;52.836;6.362;2023-03-23T03:14:22;11.20;99.90
51327;DHT22;37412;52.836;6.362;2023-03-23T03:17:24;11.20;99.90
51327;DHT22;37412;52.836;6.362;2023-03-23T03:20:12;11.30;99.90
51327;DHT22;37412;52.836;6.362;2023-03-23T03:23:00;11.30;99.90
51327;DHT22;37412;52.836;6.362;2023-03-23T03:25:47;11.30;99.90
51327;DHT22;37412;52.836;6.362;2023-03-23T03:28:33;11.30;99.90
51327;DHT22;37412;52.836;6.362;2023-03-23T03:31:22;11.30;99.90
51327;DHT22;37412;52.836;6.362;2023-03-23T03:34:09;11.30;99.90
51327;DHT22;37412;52.836;6.362;2023-03-23T03:36:56;11.30;99.90
51327;DHT22;37412;52.836;6.362;2023-03-23T03:39:44;11.30;99.90
51327;DHT22;37412;52.836;6.362;2023-03-23T03:42:30;11.40;99.90
51327;DHT22;37412;52.836;6.362;2023-03-23T03:45:18;11.30;99.90
51327;DHT22;37412;52.836;6.362;2023-03-23T03:48:05;11.40;99.90
51327;DHT22;37412;52.836;6.362;2023-03-23T03:50:51;11.40;99.90
51327;DHT22;37412;52.836;6.362;2023-03-23T03:53:37;11.40;99.90
51327;DHT22;37412;52.836;6.362;2023-03-23T03:56:24;11.40;99.90
51327;DHT22;37412;52.836;6.362;2023-03-23T03:59:11;11.50;99.90
51327;DHT22;37412;52.836;6.362;2023-03-23T04:01:58;11.40;99.90
51327;DHT22;37412;52.836;6.362;2023-03-23T04:04:44;11.50;99.90
51327;DHT22;37412;52.836;6.362;2023-03-23T04:07:30;11.40;99.90
51327;DHT22;37412;52.836;6.362;2023-03-23T04:10:16;11.40;99.90
51327;DHT22;37412;52.836;6.362;2023-03-23T04:13:02;11.40;99.90
51327;DHT22;37412;52.836;6.362;2023-03-23T04:15:50;11.40;99.90
51327;DHT22;37412;52.836;6.362;2023-03-23T04:18:36;11.40;99.90
51327;DHT22;37412;52.836;6.362;2023-03-23T04:21:25;11.40;99.90
51327;DHT22;37412;52.836;6.362;2023-03-23T04:24:15;11.40;99.90
51327;DHT22;37412;52.836;6.362;2023-03-23T04:27:01;11.80;99.90
51327;DHT22;37412;52.836;6.362;2023-03-23T04:29:47;11.30;99.90
51327;DHT22;37412;52.836;6.362;2023-03-23T04:32:34;11.30;99.90
51327;DHT22;37412;52.836;6.362;2023-03-23T04:35:23;11.30;99.90
51327;DHT22;37412;52.836;6.362;2023-03-23T04:38:12;11.90;99.90
51327;DHT22;37412;52.836;6.362;2023-03-23T04:40:59;11.30;99.90
51327;DHT22;37412;52.836;6.362;2023-03-23T04:43:48;11.30;99.90
51327;DHT22;37412;52.836;6.362;2023-03-23T04:46:38;11.20;99.90
51327;DHT22;37412;52.836;6.362;2023-03-23T04:49:24;11.10;99.90
51327;DHT22;37412;52.836;6.362;2023-03-23T04:52:10;11.20;99.90
51327;DHT22;37412;52.836;6.362;2023-03-23T04:54:56;10.80;99.90
51327;DHT22;37412;52.836;6.362;2023-03-23T04:57:42;10.60;99.90
51327;DHT22;37412;52.836;6.362;2023-03-23T05:00:29;11.00;99.90
51327;DHT22;37412;52.836;6.362;2023-03-23T05:03:19;10.30;99.90
51327;DHT22;37412;52.836;6.362;2023-03-23T05:06:06;10.20;99.90
51327;DHT22;37412;52.836;6.362;2023-03-23T05:08:52;10.20;99.90
51327;DHT22;37412;52.836;6.362;2023-03-23T05:11:38;10.20;99.90
51327;DHT22;37412;52.836;6.362;2023-03-23T05:14:24;10.20;99.90
51327;DHT22;37412;52.836;6.362;2023-03-23T05:17:19;10.30;99.90
51327;DHT22;37412;52.836;6.362;2023-03-23T05:20:06;10.30;99.90
51327;DHT22;37412;52.836;6.362;2023-03-23T05:22:56;10.30;99.90
51327;DHT22;37412;52.836;6.362;2023-03-23T05:25:43;10.30;99.90
51327;DHT22;37412;52.836;6.362;2023-03-23T05:28:29;10.40;99.90
51327;DHT22;37412;52.836;6.362;2023-03-23T05:31:16;10.40;99.90
51327;DHT22;37412;52.836;6.362;2023-03-23T05:34:02;10.60;99.90
51327;DHT22;37412;52.836;6.362;2023-03-23T05:36:49;10.60;99.90
51327;DHT22;37412;52.836;6.362;2023-03-23T05:39:36;10.60;99.90
51327;DHT22;37412;52.836;6.362;2023-03-23T05:42:22;10.60;99.90
51327;DHT22;37412;52.836;6.362;2023-03-23T05:45:10;10.50;99.90
51327;DHT22;37412;52.836;6.362;2023-03-23T05:47:59;10.40;99.90
51327;DHT22;37412;52.836;6.362;2023-03-23T05:50:45;10.40;99.90
51327;DHT22;37412;52.836;6.362;2023-03-23T05:53:31;10.40;99.90
51327;DHT22;37412;52.836;6.362;2023-03-23T05:56:17;10.30;99.90
51327;DHT22;37412;52.836;6.362;2023-03-23T05:59:03;10.30;99.90
51327;DHT22;37412;52.836;6.362;2023-03-23T06:01:51;10.30;99.90
51327;DHT22;37412;52.836;6.362;2023-03-23T06:04:39;10.30;99.90
51327;DHT22;37412;52.836;6.362;2023-03-23T06:07:26;10.20;99.90
51327;DHT22;37412;52.836;6.362;2023-03-23T06:10:12;10.20;99.90
51327;DHT22;37412;52.836;6.362;2023-03-23T06:12:58;10.20;99.90
51327;DHT22;37412;52.836;6.362;2023-03-23T06:15:44;10.20;99.90
51327;DHT22;37412;52.836;6.362;2023-03-23T06:18:30;10.20;99.90
51327;DHT22;37412;52.836;6.362;2023-03-23T06:21:19;10.20;99.90
51327;DHT22;37412;52.836;6.362;2023-03-23T06:24:05;10.20;99.90
51327;DHT22;37412;52.836;6.362;2023-03-23T06:26:51;10.20;99.90
51327;DHT22;37412;52.836;6.362;2023-03-23T06:29:37;10.30;99.90
51327;DHT22;37412;52.836;6.362;2023-03-23T06:32:24;10.30;99.90
51327;DHT22;37412;52.836;6.362;2023-03-23T06:35:11;10.30;99.90
51327;DHT22;37412;52.836;6.362;2023-03-23T06:37:58;10.30;99.90
51327;DHT22;37412;52.836;6.362;2023-03-23T06:40:47;10.40;99.90
51327;DHT22;37412;52.836;6.362;2023-03-23T06:43:34;10.30;99.90
51327;DHT22;37412;52.836;6.362;2023-03-23T06:46:28;10.50;99.90
51327;DHT22;37412;52.836;6.362;2023-03-23T06:49:14;10.40;99.90
51327;DHT22;37412;52.836;6.362;2023-03-23T06:52:00;11.50;99.90
51327;DHT22;37412;52.836;6.362;2023-03-23T06:54:49;10.50;99.90
51327;DHT22;37412;52.836;6.362;2023-03-23T06:57:35;10.60;99.90
51327;DHT22;37412;52.836;6.362;2023-03-23T07:00:21;10.60;99.90
51327;DHT22;37412;52.836;6.362;2023-03-23T07:03:08;10.60;99.90
51327;DHT22;37412;52.836;6.362;2023-03-23T07:05:54;10.60;99.90
51327;DHT22;37412;52.836;6.362;2023-03-23T07:08:42;10.70;99.90
51327;DHT22;37412;52.836;6.362;2023-03-23T07:11:27;10.70;99.90
51327;DHT22;37412;52.836;6.362;2023-03-23T07:14:17;10.70;99.90
51327;DHT22;37412;52.836;6.362;2023-03-23T07:17:03;10.80;99.90
51327;DHT22;37412;52.836;6.362;2023-03-23T07:19:49;10.80;99.90
51327;DHT22;37412;52.836;6.362;2023-03-23T07:22:35;10.70;99.90
51327;DHT22;37412;52.836;6.362;2023-03-23T07:25:21;10.80;99.90
51327;DHT22;37412;52.836;6.362;2023-03-23T07:28:07;10.80;99.90
51327;DHT22;37412;52.836;6.362;2023-03-23T07:30:53;11.00;99.90
51327;DHT22;37412;52.836;6.362;2023-03-23T07:33:39;11.20;99.90
51327;DHT22;37412;52.836;6.362;2023-03-23T07:36:25;11.40;99.90
51327;DHT22;37412;52.836;6.362;2023-03-23T07:39:12;11.50;99.90
51327;DHT22;37412;52.836;6.362;2023-03-23T07:41:58;11.50;99.90
51327;DHT22;37412;52.836;6.362;2023-03-23T07:44:44;11.50;99.90
51327;DHT22;37412;52.836;6.362;2023-03-23T07:47:32;11.50;99.90
51327;DHT22;37412;52.836;6.362;2023-03-23T07:50:19;11.50;99.90
51327;DHT22;37412;52.836;6.362;2023-03-23T07:53:07;11.50;99.90
51327;DHT22;37412;52.836;6.362;2023-03-23T07:55:53;11.50;99.90
51327;DHT22;37412;52.836;6.362;2023-03-23T07:58:40;11.50;99.90
51327;DHT22;37412;52.836;6.362;2023-03-23T08:01:26;11.50;99.90
51327;DHT22;37412;52.836;6.362;2023-03-23T08:04:12;11.50;99.90
51327;DHT22;37412;52.836;6.362;2023-03-23T08:06:59;11.50;99.90
51327;DHT22;37412;52.836;6.362;2023-03-23T08:09:45;11.40;99.90
51327;DHT22;37412;52.836;6.362;2023-03-23T08:12:32;12.20;99.90
51327;DHT22;37412;52.836;6.362;2023-03-23T08:15:18;11.40;99.90
51327;DHT22;37412;52.836;6.362;2023-03-23T08:18:04;11.40;99.90
51327;DHT22;37412;52.836;6.362;2023-03-23T08:20:53;11.50;99.90
51327;DHT22;37412;52.836;6.362;2023-03-23T08:23:39;11.50;99.90
51327;DHT22;37412;52.836;6.362;2023-03-23T08:26:25;11.50;99.90
51327;DHT22;37412;52.836;6.362;2023-03-23T08:29:12;11.50;99.90
51327;DHT22;37412;52.836;6.362;2023-03-23T08:31:58;11.80;99.90
51327;DHT22;37412;52.836;6.362;2023-03-23T08:34:44;11.50;99.90
51327;DHT22;37412;52.836;6.362;2023-03-23T08:37:30;11.50;99.90
51327;DHT22;37412;52.836;6.362;2023-03-23T08:40:16;11.50;99.90
51327;DHT22;37412;52.836;6.362;2023-03-23T08:43:05;11.50;99.90
51327;DHT22;37412;52.836;6.362;2023-03-23T08:45:51;11.60;99.90
51327;DHT22;37412;52.836;6.362;2023-03-23T08:48:38;11.70;99.90
51327;DHT22;37412;52.836;6.362;2023-03-23T08:51:24;11.70;99.90
51327;DHT22;37412;52.836;6.362;2023-03-23T08:54:10;11.70;99.90
51327;DHT22;37412;52.836;6.362;2023-03-23T08:57:00;11.70;99.90
51327;DHT22;37412;52.836;6.362;2023-03-23T08:59:46;11.60;99.90
51327;DHT22;37412;52.836;6.362;2023-03-23T09:02:32;11.60;99.90
51327;DHT22;37412;52.836;6.362;2023-03-23T09:05:21;11.60;99.90
51327;DHT22;37412;52.836;6.362;2023-03-23T09:08:09;11.60;99.90
51327;DHT22;37412;52.836;6.362;2023-03-23T09:11:00;11.60;99.90
51327;DHT22;37412;52.836;6.362;2023-03-23T09:13:46;11.60;99.90
51327;DHT22;37412;52.836;6.362;2023-03-23T09:16:33;11.60;99.90
51327;DHT22;37412;52.836;6.362;2023-03-23T09:19:19;11.80;99.90
51327;DHT22;37412;52.836;6.362;2023-03-23T09:22:06;12.40;99.90
51327;DHT22;37412;52.836;6.362;2023-03-23T09:24:52;13.20;99.90
51327;DHT22;37412;52.836;6.362;2023-03-23T09:27:39;13.50;99.90
51327;DHT22;37412;52.836;6.362;2023-03-23T09:30:27;13.40;99.90
51327;DHT22;37412;52.836;6.362;2023-03-23T09:33:14;13.10;99.90
51327;DHT22;37412;52.836;6.362;2023-03-23T09:36:00;13.00;99.90
51327;DHT22;37412;52.836;6.362;2023-03-23T09:38:51;13.00;99.90
51327;DHT22;37412;52.836;6.362;2023-03-23T09:48:26;13.40;99.90
51327;DHT22;37412;52.836;6.362;2023-03-23T09:54:38;13.20;99.90
51327;DHT22;37412;52.836;6.362;2023-03-23T09:57:35;13.20;99.90
51327;DHT22;37412;52.836;6.362;2023-03-23T10:00:37;13.00;99.90
51327;DHT22;37412;52.836;6.362;2023-03-23T10:03:31;12.90;99.90
51327;DHT22;37412;52.836;6.362;2023-03-23T10:06:18;12.90;99.90
51327;DHT22;37412;52.836;6.362;2023-03-23T10:09:05;13.00;99.90
51327;DHT22;37412;52.836;6.362;2023-03-23T10:14:47;13.60;99.90
51327;DHT22;37412;52.836;6.362;2023-03-23T10:21:00;14.60;99.90
51327;DHT22;37412;52.836;6.362;2023-03-23T10:23:55;15.40;99.90
51327;DHT22;37412;52.836;6.362;2023-03-23T10:27:17;15.70;99.90
51327;DHT22;37412;52.836;6.362;2023-03-23T10:30:03;15.80;99.90
51327;DHT22;37412;52.836;6.362;2023-03-23T10:32:57;15.20;99.90
51327;DHT22;37412;52.836;6.362;2023-03-23T10:36:10;15.20;99.90
51327;DHT22;37412;52.836;6.362;2023-03-23T10:39:19;15.10;99.90
51327;DHT22;37412;52.836;6.362;2023-03-23T10:42:06;14.70;99.90
51327;DHT22;37412;52.836;6.362;2023-03-23T10:44:54;14.30;99.90
51327;DHT22;37412;52.836;6.362;2023-03-23T10:47:47;14.10;99.90
51327;DHT22;37412;52.836;6.362;2023-03-23T10:50:36;14.20;99.90
51327;DHT22;37412;52.836;6.362;2023-03-23T10:56:27;15.50;99.90
51327;DHT22;37412;52.836;6.362;2023-03-23T10:59:39;16.30;99.90
51327;DHT22;37412;52.836;6.362;2023-03-23T11:02:23;16.80;99.90
51327;DHT22;37412;52.836;6.362;2023-03-23T11:05:21;16.50;99.90
51327;DHT22;37412;52.836;6.362;2023-03-23T11:08:18;16.20;99.90
51327;DHT22;37412;52.836;6.362;2023-03-23T11:11:28;16.00;99.90
51327;DHT22;37412;52.836;6.362;2023-03-23T11:14:24;16.00;99.90
51327;DHT22;37412;52.836;6.362;2023-03-23T11:17:25;15.80;99.90
51327;DHT22;37412;52.836;6.362;2023-03-23T11:20:12;16.00;99.90
51327;DHT22;37412;52.836;6.362;2023-03-23T11:22:58;16.30;99.90
51327;DHT22;37412;52.836;6.362;2023-03-23T11:25:54;16.40;99.90
51327;DHT22;37412;52.836;6.362;2023-03-23T11:28:45;16.40;99.90
51327;DHT22;37412;52.836;6.362;2023-03-23T11:31:40;16.50;99.90
51327;DHT22;37412;52.836;6.362;2023-03-23T11:34:48;16.10;99.90
51327;DHT22;37412;52.836;6.362;2023-03-23T11:37:41;15.80;99.90
51327;DHT22;37412;52.836;6.362;2023-03-23T11:40:30;15.30;99.90
51327;DHT22;37412;52.836;6.362;2023-03-23T11:43:22;14.90;99.90
51327;DHT22;37412;52.836;6.362;2023-03-23T11:46:37;14.60;99.90
51327;DHT22;37412;52.836;6.362;2023-03-23T11:49:53;14.30;99.90
51327;DHT22;37412;52.836;6.362;2023-03-23T11:59:34;15.60;99.90
51327;DHT22;37412;52.836;6.362;2023-03-23T12:11:47;16.60;99.90
51327;DHT22;37412;52.836;6.362;2023-03-23T12:21:13;16.50;99.90
51327;DHT22;37412;52.836;6.362;2023-03-23T12:27:24;15.90;99.90
51327;DHT22;37412;52.836;6.362;2023-03-23T12:37:21;15.40;99.90
51327;DHT22;37412;52.836;6.362;2023-03-23T12:46:43;16.20;99.90
51327;DHT22;37412;52.836;6.362;2023-03-23T12:49:35;15.60;99.90
51327;DHT22;37412;52.836;6.362;2023-03-23T12:52:51;15.60;99.90
51327;DHT22;37412;52.836;6.362;2023-03-23T12:58:33;15.70;99.90
51327;DHT22;37412;52.836;6.362;2023-03-23T13:01:25;15.60;99.90
51327;DHT22;37412;52.836;6.362;2023-03-23T13:04:45;15.60;99.90
51327;DHT22;37412;52.836;6.362;2023-03-23T13:07:35;15.80;99.90
51327;DHT22;37412;52.836;6.362;2023-03-23T13:10:48;16.10;99.90
51327;DHT22;37412;52.836;6.362;2023-03-23T13:13:51;16.20;99.90
51327;DHT22;37412;52.836;6.362;2023-03-23T13:22:39;16.50;99.90
51327;DHT22;37412;52.836;6.362;2023-03-23T13:28:28;16.80;99.90
51327;DHT22;37412;52.836;6.362;2023-03-23T13:31:17;16.90;99.90
51327;DHT22;37412;52.836;6.362;2023-03-23T13:37:10;16.60;99.90
51327;DHT22;37412;52.836;6.362;2023-03-23T13:42:59;15.70;99.90
51327;DHT22;37412;52.836;6.362;2023-03-23T13:45:47;15.50;99.90
51327;DHT22;37412;52.836;6.362;2023-03-23T13:48:51;15.40;99.90
51327;DHT22;37412;52.836;6.362;2023-03-23T13:51:58;15.30;99.90
51327;DHT22;37412;52.836;6.362;2023-03-23T13:54:46;15.40;99.90
51327;DHT22;37412;52.836;6.362;2023-03-23T13:57:37;15.30;99.90
51327;DHT22;37412;52.836;6.362;2023-03-23T14:03:33;15.60;99.90
51327;DHT22;37412;52.836;6.362;2023-03-23T14:06:22;15.80;99.90
51327;DHT22;37412;52.836;6.362;2023-03-23T14:12:05;16.20;99.90
51327;DHT22;37412;52.836;6.362;2023-03-23T14:15:02;16.20;99.90
51327;DHT22;37412;52.836;6.362;2023-03-23T14:17:50;16.10;99.90
51327;DHT22;37412;52.836;6.362;2023-03-23T14:20:38;16.10;99.90
51327;DHT22;37412;52.836;6.362;2023-03-23T14:23:25;16.10;99.90
51327;DHT22;37412;52.836;6.362;2023-03-23T14:26:19;16.10;99.90
51327;DHT22;37412;52.836;6.362;2023-03-23T14:29:09;15.90;99.90
51327;DHT22;37412;52.836;6.362;2023-03-23T14:31:57;15.70;99.90
51327;DHT22;37412;52.836;6.362;2023-03-23T14:34:46;15.50;99.90
51327;DHT22;37412;52.836;6.362;2023-03-23T14:37:33;15.70;99.90
51327;DHT22;37412;52.836;6.362;2023-03-23T14:40:21;15.60;99.90
51327;DHT22;37412;52.836;6.362;2023-03-23T14:43:10;15.40;99.90
51327;DHT22;37412;52.836;6.362;2023-03-23T14:45:59;15.50;99.90
51327;DHT22;37412;52.836;6.362;2023-03-23T14:48:46;15.70;99.90
51327;DHT22;37412;52.836;6.362;2023-03-23T14:51:32;15.80;99.90
51327;DHT22;37412;52.836;6.362;2023-03-23T14:54:28;15.80;99.90
51327;DHT22;37412;52.836;6.362;2023-03-23T15:03:02;15.90;99.90
51327;DHT22;37412;52.836;6.362;2023-03-23T15:05:57;15.90;99.90
51327;DHT22;37412;52.836;6.362;2023-03-23T15:08:46;15.90;99.90
51327;DHT22;37412;52.836;6.362;2023-03-23T15:11:35;15.80;99.90
51327;DHT22;37412;52.836;6.362;2023-03-23T15:14:31;15.80;99.90
51327;DHT22;37412;52.836;6.362;2023-03-23T15:17:24;15.70;99.90
51327;DHT22;37412;52.836;6.362;2023-03-23T15:20:43;15.70;99.90
51327;DHT22;37412;52.836;6.362;2023-03-23T15:23:29;15.70;99.90
51327;DHT22;37412;52.836;6.362;2023-03-23T15:26:34;15.70;99.90
51327;DHT22;37412;52.836;6.362;2023-03-23T15:29:26;15.60;99.90
51327;DHT22;37412;52.836;6.362;2023-03-23T15:32:13;15.60;99.90
51327;DHT22;37412;52.836;6.362;2023-03-23T15:35:16;15.50;99.90
51327;DHT22;37412;52.836;6.362;2023-03-23T15:38:17;15.40;99.90
51327;DHT22;37412;52.836;6.362;2023-03-23T15:41:25;15.30;99.90
51327;DHT22;37412;52.836;6.362;2023-03-23T15:44:18;15.20;99.90
51327;DHT22;37412;52.836;6.362;2023-03-23T15:47:19;15.10;99.90
51327;DHT22;37412;52.836;6.362;2023-03-23T15:56:10;15.10;99.90
51327;DHT22;37412;52.836;6.362;2023-03-23T15:59:00;14.90;99.90
51327;DHT22;37412;52.836;6.362;2023-03-23T16:01:49;14.80;99.90
51327;DHT22;37412;52.836;6.362;2023-03-23T16:04:35;14.80;99.90
51327;DHT22;37412;52.836;6.362;2023-03-23T16:07:22;15.30;99.90
51327;DHT22;37412;52.836;6.362;2023-03-23T16:10:17;14.80;99.90
51327;DHT22;37412;52.836;6.362;2023-03-23T16:13:04;14.80;99.90
51327;DHT22;37412;52.836;6.362;2023-03-23T16:15:59;14.70;99.90
51327;DHT22;37412;52.836;6.362;2023-03-23T16:18:45;14.60;99.90
51327;DHT22;37412;52.836;6.362;2023-03-23T16:21:31;15.10;99.90
51327;DHT22;37412;52.836;6.362;2023-03-23T16:24:18;14.50;99.90
51327;DHT22;37412;52.836;6.362;2023-03-23T16:27:04;14.40;99.90
51327;DHT22;37412;52.836;6.362;2023-03-23T16:29:50;14.40;99.90
51327;DHT22;37412;52.836;6.362;2023-03-23T16:32:36;14.40;99.90
51327;DHT22;37412;52.836;6.362;2023-03-23T16:35:22;14.40;99.90
51327;DHT22;37412;52.836;6.362;2023-03-23T16:38:13;14.40;99.90
51327;DHT22;37412;52.836;6.362;2023-03-23T16:41:00;14.40;99.90
51327;DHT22;37412;52.836;6.362;2023-03-23T16:43:48;14.40;99.90
51327;DHT22;37412;52.836;6.362;2023-03-23T16:46:34;14.40;99.90
51327;DHT22;37412;52.836;6.362;2023-03-23T16:49:20;14.30;99.90
51327;DHT22;37412;52.836;6.362;2023-03-23T16:52:06;14.20;99.90
51327;DHT22;37412;52.836;6.362;2023-03-23T16:54:53;14.10;99.90
51327;DHT22;37412;52.836;6.362;2023-03-23T16:57:39;14.00;99.90
51327;DHT22;37412;52.836;6.362;2023-03-23T17:00:26;13.90;99.90
51327;DHT22;37412;52.836;6.362;2023-03-23T17:03:12;13.90;99.90
51327;DHT22;37412;52.836;6.362;2023-03-23T17:05:59;13.80;99.90
51327;DHT22;37412;52.836;6.362;2023-03-23T17:08:46;13.80;99.90
51327;DHT22;37412;52.836;6.362;2023-03-23T17:11:32;13.70;99.90
51327;DHT22;37412;52.836;6.362;2023-03-23T17:14:18;13.70;99.90
51327;DHT22;37412;52.836;6.362;2023-03-23T17:17:04;13.60;99.90
51327;DHT22;37412;52.836;6.362;2023-03-23T17:19:50;13.60;99.90
51327;DHT22;37412;52.836;6.362;2023-03-23T17:22:38;13.50;99.90
51327;DHT22;37412;52.836;6.362;2023-03-23T17:25:25;13.40;99.90
51327;DHT22;37412;52.836;6.362;2023-03-23T17:28:11;13.40;99.90
51327;DHT22;37412;52.836;6.362;2023-03-23T17:30:57;13.30;99.90
51327;DHT22;37412;52.836;6.362;2023-03-23T17:33:43;13.20;99.90
51327;DHT22;37412;52.836;6.362;2023-03-23T17:36:29;13.20;99.90
51327;DHT22;37412;52.836;6.362;2023-03-23T17:39:15;13.10;99.90
51327;DHT22;37412;52.836;6.362;2023-03-23T17:42:02;13.10;99.90
51327;DHT22;37412;52.836;6.362;2023-03-23T17:44:48;13.00;99.90
51327;DHT22;37412;52.836;6.362;2023-03-23T17:47:35;13.00;99.90
51327;DHT22;37412;52.836;6.362;2023-03-23T17:50:21;13.00;99.90
51327;DHT22;37412;52.836;6.362;2023-03-23T17:53:10;12.20;99.90
51327;DHT22;37412;52.836;6.362;2023-03-23T17:55:56;12.80;99.90
51327;DHT22;37412;52.836;6.362;2023-03-23T17:58:42;12.80;99.90
51327;DHT22;37412;52.836;6.362;2023-03-23T18:01:28;12.80;99.90
51327;DHT22;37412;52.836;6.362;2023-03-23T18:04:15;12.80;99.90
51327;DHT22;37412;52.836;6.362;2023-03-23T18:07:01;12.70;99.90
51327;DHT22;37412;52.836;6.362;2023-03-23T18:09:48;12.80;99.90
51327;DHT22;37412;52.836;6.362;2023-03-23T18:12:34;12.70;99.90
51327;DHT22;37412;52.836;6.362;2023-03-23T18:15:20;12.70;99.90
51327;DHT22;37412;52.836;6.362;2023-03-23T18:18:06;12.80;99.90
51327;DHT22;37412;52.836;6.362;2023-03-23T18:20:57;12.70;99.90
51327;DHT22;37412;52.836;6.362;2023-03-23T18:23:44;12.70;99.90
51327;DHT22;37412;52.836;6.362;2023-03-23T18:26:30;12.70;99.90
51327;DHT22;37412;52.836;6.362;2023-03-23T18:29:16;12.70;99.90
51327;DHT22;37412;52.836;6.362;2023-03-23T18:32:02;12.70;99.90
51327;DHT22;37412;52.836;6.362;2023-03-23T18:34:48;12.70;99.90
51327;DHT22;37412;52.836;6.362;2023-03-23T18:37:35;12.70;99.90
51327;DHT22;37412;52.836;6.362;2023-03-23T18:40:21;12.60;99.90
51327;DHT22;37412;52.836;6.362;2023-03-23T18:43:09;12.60;99.90
51327;DHT22;37412;52.836;6.362;2023-03-23T18:45:56;12.60;99.90
51327;DHT22;37412;52.836;6.362;2023-03-23T18:48:42;12.60;99.90
51327;DHT22;37412;52.836;6.362;2023-03-23T18:51:28;12.50;99.90
51327;DHT22;37412;52.836;6.362;2023-03-23T18:54:15;12.50;99.90
51327;DHT22;37412;52.836;6.362;2023-03-23T18:57:02;12.50;99.90
51327;DHT22;37412;52.836;6.362;2023-03-23T18:59:48;12.50;99.90
51327;DHT22;37412;52.836;6.362;2023-03-23T19:02:35;12.50;99.90
51327;DHT22;37412;52.836;6.362;2023-03-23T19:05:23;12.50;99.90
51327;DHT22;37412;52.836;6.362;2023-03-23T19:08:09;12.50;99.90
51327;DHT22;37412;52.836;6.362;2023-03-23T19:10:59;12.50;99.90
51327;DHT22;37412;52.836;6.362;2023-03-23T19:13:45;12.50;99.90
51327;DHT22;37412;52.836;6.362;2023-03-23T19:16:34;12.50;99.90
51327;DHT22;37412;52.836;6.362;2023-03-23T19:19:20;12.40;99.90
51327;DHT22;37412;52.836;6.362;2023-03-23T19:22:06;12.40;99.90
51327;DHT22;37412;52.836;6.362;2023-03-23T19:24:53;12.30;99.90
51327;DHT22;37412;52.836;6.362;2023-03-23T19:27:39;12.30;99.90
51327;DHT22;37412;52.836;6.362;2023-03-23T19:30:25;12.30;99.90
51327;DHT22;37412;52.836;6.362;2023-03-23T19:33:11;12.30;99.90
51327;DHT22;37412;52.836;6.362;2023-03-23T19:35:57;12.30;99.90